createdAt,value
2023-02-22T00:01:47.777Z,89.04
2023-02-22T00:11:47.746Z,91.82
2023-02-22T00:21:47.985Z,91.72
2023-02-22T00:31:48.354Z,92.24
2023-02-22T00:41:48.425Z,93.41
2023-02-22T00:51:48.543Z,93.41
2023-02-22T01:01:48.675Z,92.80
2023-02-22T01:11:48.876Z,94.08
2023-02-22T01:21:49.122Z,96.41
2023-02-22T01:31:49.347Z,96.82
2023-02-22T01:41:49.580Z,97.02
2023-02-22T01:51:49.777Z,97.85
2023-02-22T02:01:50.027Z,97.44
2023-02-22T02:11:50.224Z,96.66
2023-02-22T02:21:50.478Z,95.83
2023-02-22T02:31:50.713Z,96.55
2023-02-22T02:41:50.751Z,97.83
2023-02-22T02:51:50.900Z,98.41
2023-02-22T03:01:52.227Z,98.10
2023-02-22T03:11:51.135Z,97.22
2023-02-22T03:21:51.298Z,99.02
2023-02-22T03:31:51.510Z,99.85
2023-02-22T03:41:51.649Z,99.99
2023-02-22T03:51:52.012Z,99.99
2023-02-22T04:01:51.921Z,99.76
2023-02-22T04:11:52.110Z,98.76
2023-02-22T04:21:52.343Z,99.99
2023-02-22T04:31:52.600Z,99.99
2023-02-22T04:41:52.731Z,99.99
2023-02-22T04:51:52.927Z,99.99
2023-02-22T05:01:53.170Z,99.99
2023-02-22T05:11:53.619Z,99.99
2023-02-22T05:21:53.520Z,99.99
2023-02-22T05:31:53.877Z,99.55
2023-02-22T05:41:54.168Z,98.93
2023-02-22T05:51:54.035Z,98.82
2023-02-22T06:01:54.191Z,98.51
2023-02-22T06:11:54.593Z,99.02
2023-02-22T06:21:54.484Z,99.85
2023-02-22T06:31:54.806Z,99.74
2023-02-22T06:41:55.326Z,99.99
2023-02-22T06:51:55.086Z,99.91
2023-02-22T07:01:55.462Z,99.44
2023-02-22T07:11:55.432Z,98.93
2023-02-22T07:21:55.716Z,98.32
2023-02-22T07:31:55.986Z,96.88
2023-02-22T07:41:56.013Z,95.34
2023-02-22T07:51:56.226Z,93.70
2023-02-22T08:01:56.359Z,90.37
2023-02-22T08:11:56.542Z,87.15
2023-02-22T08:21:56.777Z,85.25
2023-02-22T08:31:57.084Z,85.01
2023-02-22T08:41:57.219Z,83.87
2023-02-22T08:51:57.584Z,84.80
2023-02-22T09:01:57.649Z,82.87
2023-02-22T09:11:57.748Z,71.59
2023-02-22T09:21:57.989Z,62.17
2023-02-22T09:31:58.355Z,65.55
2023-02-22T09:41:58.322Z,70.67
2023-02-22T09:51:58.496Z,71.59
2023-02-22T10:01:58.713Z,68.09
2023-02-22T10:11:59.204Z,68.74
2023-02-22T10:21:59.074Z,68.09
2023-02-22T10:31:59.593Z,67.24
2023-02-22T10:41:59.634Z,67.79
2023-02-22T10:51:59.681Z,66.50
2023-02-22T11:01:59.916Z,62.92
2023-02-22T11:12:00.276Z,62.48
2023-02-22T11:22:00.353Z,60.08
2023-02-22T11:32:00.525Z,58.83
2023-02-22T11:42:00.797Z,56.99
2023-02-22T11:52:00.724Z,52.54
2023-02-22T12:02:01.068Z,54.82
2023-02-22T12:12:01.112Z,52.99
2023-02-22T12:22:01.694Z,54.44
2023-02-22T12:32:01.574Z,52.61
2023-02-22T12:42:01.856Z,51.43
2023-02-22T12:52:12.510Z,51.88
2023-02-22T13:02:03.028Z,52.11
2023-02-22T13:12:02.078Z,51.88
2023-02-22T13:22:02.563Z,53.22
2023-02-22T13:32:02.468Z,52.28
2023-02-22T13:42:02.603Z,52.06
2023-02-22T13:52:02.681Z,51.48
2023-02-22T14:02:03.350Z,51.89
2023-02-22T14:12:03.417Z,50.20
2023-02-22T14:22:03.301Z,56.13
2023-02-22T14:32:03.806Z,58.39
2023-02-22T14:42:03.632Z,57.50
2023-02-22T14:52:03.975Z,58.75
2023-02-22T15:02:11.323Z,59.77
2023-02-22T15:12:05.261Z,60.33
2023-02-22T15:22:04.475Z,60.36
2023-02-22T15:32:04.771Z,61.27
2023-02-22T15:42:04.768Z,61.68
2023-02-22T15:52:04.980Z,61.33
2023-02-22T16:02:05.285Z,63.19
2023-02-22T16:12:05.525Z,64.44
2023-02-22T16:22:05.526Z,67.76
2023-02-22T16:32:05.726Z,70.37
2023-02-22T16:42:06.085Z,74.15
2023-02-22T16:52:05.945Z,76.91
2023-02-22T17:02:06.084Z,76.34
2023-02-22T17:12:06.571Z,77.73
2023-02-22T17:22:06.448Z,79.21
2023-02-22T17:32:06.864Z,80.10
2023-02-22T17:42:06.844Z,80.45
2023-02-22T17:52:07.076Z,80.76
2023-02-22T18:02:07.213Z,79.59
2023-02-22T18:12:07.319Z,81.65
2023-02-22T18:22:07.471Z,81.34
2023-02-22T18:32:07.580Z,82.82
2023-02-22T18:42:07.697Z,81.41
2023-02-22T18:52:08.121Z,82.68
2023-02-22T19:02:08.171Z,84.16
2023-02-22T19:12:08.382Z,84.36
2023-02-22T19:22:08.683Z,84.42
2023-02-22T19:32:08.615Z,84.53
2023-02-22T19:42:08.770Z,84.84
2023-02-22T19:52:08.970Z,86.42
2023-02-22T20:02:09.230Z,85.46
2023-02-22T20:12:09.329Z,84.90
2023-02-22T20:22:09.727Z,85.35
2023-02-22T20:32:10.339Z,87.24
2023-02-22T20:42:09.916Z,85.72
2023-02-22T20:52:10.280Z,86.68
2023-02-22T21:02:10.334Z,87.65
2023-02-22T21:12:10.292Z,87.85
2023-02-22T21:22:10.524Z,88.23
2023-02-22T21:32:10.979Z,89.09
2023-02-22T21:42:10.909Z,87.67
2023-02-22T21:52:11.113Z,90.61
2023-02-22T22:02:11.343Z,92.14
2023-02-22T22:12:11.528Z,92.65
2023-02-22T22:22:11.778Z,93.41
2023-02-22T22:32:12.088Z,93.93
2023-02-22T22:42:12.177Z,93.83
2023-02-22T22:52:12.355Z,94.09
2023-02-22T23:02:12.644Z,93.84
2023-02-22T23:12:12.717Z,94.05
2023-02-22T23:22:12.960Z,94.01
2023-02-22T23:32:13.271Z,93.49
2023-02-22T23:42:13.318Z,92.42
2023-02-22T23:52:13.450Z,92.38
